Time;durP1;ratioP1;P1;durP2;ratioP2;P2;SDS_P1;SDS_P2;PMS_P1;PMS_P2;Temp;Humidity;BMP_temperature;BMP_pressure;BME280_temperature;BME280_humidity;BME280_pressure;Samples;Min_cycle;Max_cycle;Signal;HPM_P1;HPM_P2
2021/04/14 00:01:54;;;;;;;5.30;4.53;;;;;;;;;;5079909;28;20204;-71
2021/04/14 00:04:19;;;;;;;4.10;3.70;;;;;;;;;;5089427;28;20562;-70
2021/04/14 00:06:45;;;;;;;5.57;4.50;;;;;;;;;;5084349;28;20196;-71
2021/04/14 00:09:10;;;;;;;4.93;4.03;;;;;;;;;;5082450;28;20172;-70
2021/04/14 00:11:36;;;;;;;6.17;4.20;;;;;;;;;;5082354;28;20204;-71
2021/04/14 00:14:01;;;;;;;5.40;4.00;;;;;;;;;;5081358;28;20176;-71
2021/04/14 00:16:27;;;;;;;6.47;4.47;;;;;;;;;;5080835;28;20190;-70
2021/04/14 00:18:52;;;;;;;5.10;4.37;;;;;;;;;;5085001;28;20188;-71
2021/04/14 00:21:19;;;;;;;4.33;3.90;;;;;;;;;;5084616;28;20196;-70
2021/04/14 00:23:45;;;;;;;4.77;4.03;;;;;;;;;;5079926;28;20435;-71
2021/04/14 00:26:11;;;;;;;14.17;4.87;;;;;;;;;;5083090;28;20184;-70
2021/04/14 00:28:37;;;;;;;5.23;4.07;;;;;;;;;;5081021;28;20195;-70
2021/04/14 00:31:02;;;;;;;6.83;4.83;;;;;;;;;;5083168;28;20689;-71
2021/04/14 00:33:27;;;;;;;7.07;4.80;;;;;;;;;;5076572;28;20208;-71
2021/04/14 00:35:53;;;;;;;7.57;4.53;;;;;;;;;;5081682;28;20298;-71
2021/04/14 00:38:19;;;;;;;5.27;4.57;;;;;;;;;;5083693;28;20195;-70
2021/04/14 00:40:47;;;;;;;5.97;4.40;;;;;;;;;;5093777;28;20769;-70
2021/04/14 00:43:17;;;;;;;5.23;4.43;;;;;;;;;;5083279;28;20278;-70
2021/04/14 00:45:43;;;;;;;4.73;4.20;;;;;;;;;;5083584;28;20321;-69
2021/04/14 00:48:08;;;;;;;4.97;4.40;;;;;;;;;;5083997;28;20364;-70
2021/04/14 00:50:35;;;;;;;6.67;4.83;;;;;;;;;;5081255;28;20212;-71
2021/04/14 00:53:00;;;;;;;6.40;4.73;;;;;;;;;;5083152;28;20177;-69
2021/04/14 00:55:26;;;;;;;6.60;5.10;;;;;;;;;;5081878;28;20215;-70
2021/04/14 00:57:51;;;;;;;6.33;4.33;;;;;;;;;;5083525;28;20191;-68
2021/04/14 01:00:19;;;;;;;5.53;4.13;;;;;;;;;;5082242;28;20567;-68
2021/04/14 01:02:44;;;;;;;4.37;3.77;;;;;;;;;;5080495;28;20191;-68
2021/04/14 01:05:11;;;;;;;4.80;3.80;;;;;;;;;;5077000;28;20185;-69
2021/04/14 01:07:37;;;;;;;11.73;4.77;;;;;;;;;;5080661;28;20702;-69
2021/04/14 01:10:02;;;;;;;7.50;4.60;;;;;;;;;;5085011;28;20208;-68
2021/04/14 01:12:28;;;;;;;9.53;4.83;;;;;;;;;;5090722;28;20164;-70
2021/04/14 01:14:53;;;;;;;5.37;4.63;;;;;;;;;;5082072;28;20220;-69
2021/04/14 01:17:18;;;;;;;5.67;4.40;;;;;;;;;;5079610;28;21667;-69
2021/04/14 01:19:43;;;;;;;6.80;4.50;;;;;;;;;;5078958;28;20189;-68
2021/04/14 01:22:08;;;;;;;5.23;4.30;;;;;;;;;;5078657;28;20689;-69
2021/04/14 01:24:33;;;;;;;6.87;4.33;;;;;;;;;;5079149;28;20255;-69
2021/04/14 01:26:59;;;;;;;7.40;4.30;;;;;;;;;;5078031;28;20193;-69
2021/04/14 01:29:24;;;;;;;5.90;4.40;;;;;;;;;;5080777;28;20281;-68
2021/04/14 01:31:49;;;;;;;6.87;4.60;;;;;;;;;;5082328;28;20201;-69
2021/04/14 01:34:16;;;;;;;5.40;4.00;;;;;;;;;;5080917;28;20557;-69
2021/04/14 01:36:41;;;;;;;6.20;4.83;;;;;;;;;;5082695;28;20179;-68
2021/04/14 01:39:07;;;;;;;5.73;4.43;;;;;;;;;;5085534;28;20562;-68
2021/04/14 01:41:33;;;;;;;4.60;4.10;;;;;;;;;;5080961;28;20792;-68
2021/04/14 01:43:59;;;;;;;4.90;3.57;;;;;;;;;;5081025;28;20180;-69
2021/04/14 01:46:24;;;;;;;6.80;5.00;;;;;;;;;;5077748;28;20192;-68
2021/04/14 01:48:49;;;;;;;5.30;4.60;;;;;;;;;;5079105;28;20181;-70
2021/04/14 01:51:14;;;;;;;6.10;5.10;;;;;;;;;;5078810;28;20200;-71
2021/04/14 01:53:40;;;;;;;5.13;4.40;;;;;;;;;;5079903;28;20621;-70
2021/04/14 01:56:05;;;;;;;6.77;4.67;;;;;;;;;;5077090;28;20184;-71
2021/04/14 01:58:31;;;;;;;9.57;4.70;;;;;;;;;;5080984;28;20332;-70
2021/04/14 02:00:59;;;;;;;5.43;4.87;;;;;;;;;;5078339;28;20196;-71
2021/04/14 02:03:27;;;;;;;7.23;4.73;;;;;;;;;;5079695;28;20168;-70
2021/04/14 02:05:52;;;;;;;5.47;4.50;;;;;;;;;;5078158;28;20211;-70
2021/04/14 02:08:18;;;;;;;6.67;4.40;;;;;;;;;;5078066;28;20246;-71
2021/04/14 02:10:43;;;;;;;5.97;4.53;;;;;;;;;;5077713;28;20690;-71
2021/04/14 02:13:14;;;;;;;6.10;5.00;;;;;;;;;;5078342;28;20259;-71
2021/04/14 02:15:39;;;;;;;8.67;5.03;;;;;;;;;;5077600;28;20177;-70
2021/04/14 02:18:05;;;;;;;5.70;4.60;;;;;;;;;;5079101;28;20185;-70
2021/04/14 02:20:30;;;;;;;5.37;4.60;;;;;;;;;;5078192;28;20208;-69
2021/04/14 02:22:55;;;;;;;4.77;4.37;;;;;;;;;;5079142;28;20180;-69
2021/04/14 02:25:22;;;;;;;5.47;4.27;;;;;;;;;;5079049;28;20177;-70
2021/04/14 02:27:47;;;;;;;6.67;4.70;;;;;;;;;;5078254;28;20212;-69
2021/04/14 02:30:27;;;;;;;4.63;4.20;;;;;;;;;;5078988;28;20710;-69
2021/04/14 02:32:53;;;;;;;5.37;4.60;;;;;;;;;;5077379;28;20653;-69
2021/04/14 02:35:18;;;;;;;5.83;5.00;;;;;;;;;;5071432;28;20195;-70
2021/04/14 02:37:44;;;;;;;8.10;5.30;;;;;;;;;;5076889;28;20547;-69
2021/04/14 02:40:09;;;;;;;6.67;4.60;;;;;;;;;;5078041;28;20275;-70
2021/04/14 02:42:35;;;;;;;5.97;4.50;;;;;;;;;;5077775;28;20180;-70
2021/04/14 02:45:01;;;;;;;4.90;4.40;;;;;;;;;;5077747;28;20187;-70
2021/04/14 02:47:26;;;;;;;7.07;4.60;;;;;;;;;;5083569;28;20185;-69
2021/04/14 02:49:51;;;;;;;6.40;4.83;;;;;;;;;;5078722;28;20200;-69
2021/04/14 02:52:16;;;;;;;5.67;4.77;;;;;;;;;;5085850;28;20199;-69
2021/04/14 02:54:41;;;;;;;6.53;5.10;;;;;;;;;;5078851;28;20185;-70
2021/04/14 02:57:07;;;;;;;7.30;4.83;;;;;;;;;;5082117;28;20267;-70
2021/04/14 02:59:32;;;;;;;5.47;4.60;;;;;;;;;;5085907;28;20173;-69
2021/04/14 03:01:58;;;;;;;5.70;5.03;;;;;;;;;;5081056;28;20697;-70
2021/04/14 03:04:23;;;;;;;7.33;4.73;;;;;;;;;;5083171;28;20661;-70
2021/04/14 03:06:48;;;;;;;7.23;5.23;;;;;;;;;;5075693;28;20200;-70
2021/04/14 03:09:13;;;;;;;7.30;5.00;;;;;;;;;;5072059;28;20253;-69
2021/04/14 03:11:39;;;;;;;7.57;5.40;;;;;;;;;;5071324;28;20193;-70
2021/04/14 03:14:04;;;;;;;6.07;4.90;;;;;;;;;;5078068;28;20908;-70
2021/04/14 03:16:29;;;;;;;8.07;5.50;;;;;;;;;;5082243;28;20260;-69
2021/04/14 03:18:54;;;;;;;9.70;5.47;;;;;;;;;;5085858;28;20525;-70
2021/04/14 03:21:20;;;;;;;7.30;5.90;;;;;;;;;;5079964;28;20600;-70
2021/04/14 03:23:45;;;;;;;12.10;6.17;;;;;;;;;;5075647;28;20184;-69
2021/04/14 03:26:10;;;;;;;6.63;5.40;;;;;;;;;;5076232;28;20957;-68
2021/04/14 03:28:36;;;;;;;6.63;5.63;;;;;;;;;;5074729;28;20255;-70
2021/04/14 03:31:01;;;;;;;8.40;6.50;;;;;;;;;;5084309;28;20196;-69
2021/04/14 03:33:26;;;;;;;6.73;5.17;;;;;;;;;;5081127;28;20169;-69
2021/04/14 03:35:52;;;;;;;7.03;6.20;;;;;;;;;;5087668;28;20211;-69
2021/04/14 03:38:17;;;;;;;8.87;5.13;;;;;;;;;;5086163;28;20184;-69
2021/04/14 03:40:42;;;;;;;8.93;6.50;;;;;;;;;;5085572;28;20287;-69
2021/04/14 03:43:07;;;;;;;5.73;5.23;;;;;;;;;;5083895;28;20233;-69
2021/04/14 03:45:40;;;;;;;6.97;5.70;;;;;;;;;;5085901;28;20657;-69
2021/04/14 03:48:06;;;;;;;9.30;6.17;;;;;;;;;;5081704;28;20222;-69
2021/04/14 03:50:32;;;;;;;6.40;5.60;;;;;;;;;;5081194;28;20188;-69
2021/04/14 03:53:07;;;;;;;7.47;5.40;;;;;;;;;;5084162;28;20164;-70
2021/04/14 03:55:32;;;;;;;7.53;5.73;;;;;;;;;;5084353;28;20191;-69
2021/04/14 03:57:58;;;;;;;6.63;5.50;;;;;;;;;;5076894;28;20188;-70
2021/04/14 04:00:25;;;;;;;7.13;5.67;;;;;;;;;;5073645;28;20765;-70
2021/04/14 04:02:50;;;;;;;6.60;5.70;;;;;;;;;;5087754;28;20172;-70
2021/04/14 04:05:15;;;;;;;8.17;5.27;;;;;;;;;;5084891;28;20195;-69
2021/04/14 04:07:41;;;;;;;6.43;5.50;;;;;;;;;;5079309;28;20231;-69
2021/04/14 04:10:07;;;;;;;7.57;5.83;;;;;;;;;;5084224;28;20206;-70
2021/04/14 04:12:32;;;;;;;7.03;5.93;;;;;;;;;;5088388;28;20650;-69
2021/04/14 04:14:58;;;;;;;9.93;6.17;;;;;;;;;;5078113;28;20207;-70
2021/04/14 04:17:23;;;;;;;7.53;6.10;;;;;;;;;;5080609;28;20685;-70
2021/04/14 04:19:49;;;;;;;6.30;5.43;;;;;;;;;;5081373;28;20234;-70
2021/04/14 04:22:18;;;;;;;6.90;5.83;;;;;;;;;;5078724;28;20201;-68
2021/04/14 04:24:43;;;;;;;8.83;6.63;;;;;;;;;;5075910;28;20634;-69
2021/04/14 04:27:08;;;;;;;11.60;6.93;;;;;;;;;;5073852;28;20242;-71
2021/04/14 04:29:33;;;;;;;7.43;6.03;;;;;;;;;;5073203;28;20303;-70
2021/04/14 04:31:58;;;;;;;7.87;6.20;;;;;;;;;;5077384;28;20696;-67
2021/04/14 04:34:24;;;;;;;10.77;6.10;;;;;;;;;;5076994;28;20371;-70
2021/04/14 04:36:50;;;;;;;13.43;6.73;;;;;;;;;;5071552;28;20650;-70
2021/04/14 04:39:16;;;;;;;8.47;6.87;;;;;;;;;;5080358;28;20225;-69
2021/04/14 04:41:41;;;;;;;8.87;6.60;;;;;;;;;;5079099;28;20197;-70
2021/04/14 04:44:06;;;;;;;7.70;6.57;;;;;;;;;;5081596;28;20195;-71
2021/04/14 04:46:31;;;;;;;7.03;6.00;;;;;;;;;;5079342;28;20192;-70
2021/04/14 04:48:56;;;;;;;7.93;6.23;;;;;;;;;;5078609;28;20172;-70
2021/04/14 04:51:21;;;;;;;8.37;6.53;;;;;;;;;;5079356;28;20287;-71
2021/04/14 04:53:47;;;;;;;8.43;6.40;;;;;;;;;;5077899;28;20179;-70
2021/04/14 04:56:12;;;;;;;8.67;6.70;;;;;;;;;;5079211;28;20180;-68
2021/04/14 04:58:37;;;;;;;8.10;6.27;;;;;;;;;;5082107;28;20211;-68
2021/04/14 05:01:02;;;;;;;9.13;6.30;;;;;;;;;;5082484;28;20192;-70
2021/04/14 05:03:28;;;;;;;7.17;6.23;;;;;;;;;;5077203;28;20207;-69
2021/04/14 05:05:55;;;;;;;8.23;6.90;;;;;;;;;;5079184;28;20192;-70
2021/04/14 05:08:20;;;;;;;9.13;6.90;;;;;;;;;;5081155;28;21455;-70
2021/04/14 05:10:45;;;;;;;8.53;7.43;;;;;;;;;;5078509;28;20242;-70
2021/04/14 05:13:10;;;;;;;8.80;7.33;;;;;;;;;;5077348;28;20624;-69
2021/04/14 05:15:38;;;;;;;9.10;6.83;;;;;;;;;;5081342;28;20177;-69
2021/04/14 05:18:04;;;;;;;11.27;7.20;;;;;;;;;;5077923;28;20712;-68
2021/04/14 05:20:29;;;;;;;15.20;8.40;;;;;;;;;;5079680;28;20196;-70
2021/04/14 05:22:55;;;;;;;9.23;7.87;;;;;;;;;;5078942;28;20175;-70
2021/04/14 05:25:22;;;;;;;8.20;6.47;;;;;;;;;;5083767;28;20259;-70
2021/04/14 05:27:48;;;;;;;15.33;6.87;;;;;;;;;;5087014;28;20267;-69
2021/04/14 05:30:14;;;;;;;10.47;7.07;;;;;;;;;;5085576;28;20202;-69
2021/04/14 05:32:40;;;;;;;8.67;6.60;;;;;;;;;;5082832;28;20211;-69
2021/04/14 05:35:06;;;;;;;8.00;6.73;;;;;;;;;;5077930;28;20427;-69
2021/04/14 05:37:32;;;;;;;10.73;6.77;;;;;;;;;;5077755;28;20204;-69
2021/04/14 05:39:57;;;;;;;8.03;5.53;;;;;;;;;;5079273;28;20195;-69
2021/04/14 05:42:22;;;;;;;8.80;6.20;;;;;;;;;;5078720;28;20226;-68
2021/04/14 05:44:48;;;;;;;7.50;5.67;;;;;;;;;;5079898;28;20561;-67
2021/04/14 05:47:13;;;;;;;5.93;5.27;;;;;;;;;;5077954;28;20200;-69
2021/04/14 05:49:38;;;;;;;7.43;5.30;;;;;;;;;;5080665;28;20184;-69
2021/04/14 05:52:04;;;;;;;8.87;5.17;;;;;;;;;;5078136;28;20212;-68
2021/04/14 05:54:29;;;;;;;6.17;5.40;;;;;;;;;;5088109;28;20190;-69
2021/04/14 05:56:54;;;;;;;8.40;5.50;;;;;;;;;;5080864;28;20193;-69
2021/04/14 05:59:19;;;;;;;7.33;5.43;;;;;;;;;;5079149;28;20195;-67
2021/04/14 06:01:44;;;;;;;9.40;7.77;;;;;;;;;;5078600;28;20209;-69
2021/04/14 06:04:11;;;;;;;11.90;6.67;;;;;;;;;;5077450;28;20180;-68
2021/04/14 06:06:36;;;;;;;9.60;7.50;;;;;;;;;;5079402;28;20681;-68
2021/04/14 06:09:02;;;;;;;12.73;7.63;;;;;;;;;;5082483;28;20192;-67
2021/04/14 06:11:28;;;;;;;10.67;7.60;;;;;;;;;;5076482;28;20710;-68
2021/04/14 06:13:55;;;;;;;12.50;8.27;;;;;;;;;;5077660;28;20172;-68
2021/04/14 06:16:20;;;;;;;10.17;7.90;;;;;;;;;;5076517;28;20257;-68
2021/04/14 06:18:45;;;;;;;13.10;8.57;;;;;;;;;;5087422;28;20189;-68
2021/04/14 06:21:13;;;;;;;11.17;8.30;;;;;;;;;;5085962;28;20211;-68
2021/04/14 06:23:38;;;;;;;12.57;8.13;;;;;;;;;;5075168;28;20180;-68
2021/04/14 06:28:29;;;;;;;12.80;9.07;;;;;;;;;;5082999;28;20212;-68
2021/04/14 06:30:54;;;;;;;12.10;8.70;;;;;;;;;;5081146;28;20204;-69
2021/04/14 06:33:21;;;;;;;13.77;9.17;;;;;;;;;;5078726;28;20234;-69
2021/04/14 06:35:47;;;;;;;13.83;9.00;;;;;;;;;;5076224;28;20220;-69
2021/04/14 06:38:15;;;;;;;13.90;9.13;;;;;;;;;;5079853;28;20215;-69
2021/04/14 06:43:39;;;;;;;11.93;8.47;;;;;;;;;;5086753;28;20291;-68
2021/04/14 06:46:06;;;;;;;13.27;7.43;;;;;;;;;;5081689;28;20179;-68
2021/04/14 06:48:37;;;;;;;13.13;8.57;;;;;;;;;;5078790;28;20212;-67
2021/04/14 06:51:06;;;;;;;11.10;7.70;;;;;;;;;;5085576;28;20196;-69
2021/04/14 06:53:45;;;;;;;10.93;8.13;;;;;;;;;;5092239;28;20176;-68
2021/04/14 06:56:15;;;;;;;13.60;8.37;;;;;;;;;;5079357;28;20182;-67
2021/04/14 06:58:45;;;;;;;12.77;8.73;;;;;;;;;;5075977;28;20551;-68
2021/04/14 07:01:12;;;;;;;12.00;8.67;;;;;;;;;;5076836;28;20622;-68
2021/04/14 07:03:47;;;;;;;13.07;8.73;;;;;;;;;;5069349;28;20181;-68
2021/04/14 07:06:15;;;;;;;13.17;9.00;;;;;;;;;;5077137;28;20242;-68
2021/04/14 07:08:43;;;;;;;14.37;9.47;;;;;;;;;;5071441;28;20188;-68
2021/04/14 07:11:10;;;;;;;14.07;9.80;;;;;;;;;;5076938;28;20675;-68
2021/04/14 07:13:36;;;;;;;11.53;8.43;;;;;;;;;;5076392;28;20184;-68
2021/04/14 07:16:20;;;;;;;12.60;9.37;;;;;;;;;;5072440;28;20181;-69
2021/04/14 07:18:56;;;;;;;13.03;8.37;;;;;;;;;;5078620;28;20211;-68
2021/04/14 07:21:33;;;;;;;10.30;7.77;;;;;;;;;;5079274;28;20274;-68
2021/04/14 07:24:17;;;;;;;11.80;8.53;;;;;;;;;;5079869;28;20184;-68
2021/04/14 07:26:45;;;;;;;11.03;7.63;;;;;;;;;;5077145;28;20195;-68
2021/04/14 07:29:19;;;;;;;10.47;7.53;;;;;;;;;;5083892;28;20230;-69
2021/04/14 07:31:52;;;;;;;12.90;8.00;;;;;;;;;;5076137;28;20291;-68
2021/04/14 07:34:17;;;;;;;9.20;7.23;;;;;;;;;;5072535;28;20681;-68
2021/04/14 07:37:03;;;;;;;11.03;8.63;;;;;;;;;;5069605;28;20181;-69
2021/04/14 07:39:40;;;;;;;11.63;6.70;;;;;;;;;;5075913;28;20193;-68
2021/04/14 07:42:25;;;;;;;10.87;7.40;;;;;;;;;;5075069;28;20223;-68
2021/04/14 07:44:58;;;;;;;11.37;7.20;;;;;;;;;;5068699;28;20197;-69
2021/04/14 07:47:24;;;;;;;10.77;6.90;;;;;;;;;;5070215;28;20212;-68
2021/04/14 07:49:50;;;;;;;10.53;7.27;;;;;;;;;;5071405;28;20188;-68
2021/04/14 07:52:20;;;;;;;11.53;7.43;;;;;;;;;;5078077;28;20211;-68
2021/04/14 07:54:47;;;;;;;10.13;7.93;;;;;;;;;;5075780;28;20270;-68
2021/04/14 07:57:12;;;;;;;11.40;8.13;;;;;;;;;;5076851;28;20654;-69
2021/04/14 07:59:40;;;;;;;10.23;7.57;;;;;;;;;;5077101;28;20176;-68
2021/04/14 08:02:05;;;;;;;11.03;7.60;;;;;;;;;;5069618;28;20250;-67
2021/04/14 08:04:35;;;;;;;9.30;7.33;;;;;;;;;;5070966;28;20189;-68
2021/04/14 08:07:07;;;;;;;11.93;7.40;;;;;;;;;;5075957;28;20250;-68
2021/04/14 08:09:32;;;;;;;9.10;6.93;;;;;;;;;;5069492;28;20188;-68
2021/04/14 08:12:03;;;;;;;9.47;7.20;;;;;;;;;;5073408;28;20200;-68
2021/04/14 08:14:38;;;;;;;10.97;8.20;;;;;;;;;;5078654;28;20556;-68
2021/04/14 08:17:10;;;;;;;11.57;9.07;;;;;;;;;;5072444;28;20183;-68
2021/04/14 08:19:36;;;;;;;11.63;8.03;;;;;;;;;;5074785;28;20660;-68
2021/04/14 08:22:01;;;;;;;8.00;7.10;;;;;;;;;;5074954;28;20204;-67
2021/04/14 08:24:40;;;;;;;10.98;8.23;;;;;;;;;;5071803;28;20177;-66
2021/04/14 08:27:17;;;;;;;11.90;7.93;;;;;;;;;;5075784;28;20209;-69
2021/04/14 08:29:43;;;;;;;10.33;8.47;;;;;;;;;;5079326;28;20181;-68
2021/04/14 08:32:12;;;;;;;10.70;8.13;;;;;;;;;;5079752;28;20188;-68
2021/04/14 08:34:38;;;;;;;12.53;8.50;;;;;;;;;;5075293;28;20193;-68
2021/04/14 08:37:05;;;;;;;13.23;8.60;;;;;;;;;;5082966;28;20215;-68
2021/04/14 08:39:41;;;;;;;13.07;8.83;;;;;;;;;;5084026;28;20204;-67
2021/04/14 08:42:06;;;;;;;11.70;8.80;;;;;;;;;;5081347;28;20204;-68
2021/04/14 08:44:33;;;;;;;10.70;8.93;;;;;;;;;;5085278;28;20179;-68
2021/04/14 08:47:12;;;;;;;12.03;8.90;;;;;;;;;;5078504;28;20284;-67
2021/04/14 08:49:39;;;;;;;13.67;9.00;;;;;;;;;;5079681;28;20168;-68
2021/04/14 08:52:04;;;;;;;11.00;7.60;;;;;;;;;;5083832;28;20246;-67
2021/04/14 08:54:31;;;;;;;12.60;8.40;;;;;;;;;;5081993;28;20180;-67
2021/04/14 08:56:56;;;;;;;11.77;8.87;;;;;;;;;;5081747;28;20180;-68
2021/04/14 08:59:22;;;;;;;10.33;8.20;;;;;;;;;;5084408;28;20179;-68
2021/04/14 09:01:48;;;;;;;9.07;7.43;;;;;;;;;;5078656;28;20204;-68
2021/04/14 09:04:14;;;;;;;12.30;8.50;;;;;;;;;;5076832;28;20264;-67
2021/04/14 09:06:43;;;;;;;10.20;8.57;;;;;;;;;;5081524;28;20283;-68
2021/04/14 09:09:10;;;;;;;13.27;8.97;;;;;;;;;;5082795;28;20181;-67
2021/04/14 09:11:36;;;;;;;12.47;8.80;;;;;;;;;;5081089;28;20752;-68
2021/04/14 09:14:07;;;;;;;11.00;8.67;;;;;;;;;;5075750;28;20173;-68
2021/04/14 09:16:47;;;;;;;10.93;8.33;;;;;;;;;;5080844;28;20536;-67
2021/04/14 09:19:22;;;;;;;10.23;8.00;;;;;;;;;;5095051;28;20172;-68
2021/04/14 09:21:57;;;;;;;9.70;8.57;;;;;;;;;;5082666;28;20189;-67
2021/04/14 09:24:31;;;;;;;10.40;7.73;;;;;;;;;;5083400;28;20172;-68
2021/04/14 09:26:57;;;;;;;11.47;9.17;;;;;;;;;;5087609;28;20255;-68
2021/04/14 09:29:46;;;;;;;9.93;7.80;;;;;;;;;;5085048;28;20184;-70
2021/04/14 09:32:12;;;;;;;10.27;8.10;;;;;;;;;;5081390;28;20403;-69
2021/04/14 09:34:42;;;;;;;12.73;8.73;;;;;;;;;;5075923;28;20680;-67
2021/04/14 09:37:13;;;;;;;14.53;7.47;;;;;;;;;;5080845;28;20223;-68
2021/04/14 09:39:53;;;;;;;9.25;8.35;;;;;;;;;;5080774;28;20173;-69
2021/04/14 09:42:24;;;;;;;8.82;7.32;;;;;;;;;;5075274;28;20626;-69
2021/04/14 09:44:51;;;;;;;8.50;6.13;;;;;;;;;;5086089;28;20670;-69
2021/04/14 09:47:25;;;;;;;6.38;5.25;;;;;;;;;;5081804;28;20208;-68
2021/04/14 09:49:51;;;;;;;7.05;5.00;;;;;;;;;;5075446;28;20230;-68
2021/04/14 09:52:46;;;;;;;10.30;6.10;;;;;;;;;;5085704;28;20579;-69
2021/04/14 09:55:14;;;;;;;7.60;6.80;;;;;;;;;;5079291;28;20188;-67
2021/04/14 09:57:41;;;;;;;7.28;5.63;;;;;;;;;;5075586;28;20207;-68
2021/04/14 10:00:13;;;;;;;8.63;6.05;;;;;;;;;;5072588;28;20260;-68
2021/04/14 10:02:39;;;;;;;8.18;5.53;;;;;;;;;;5080132;28;20242;-68
2021/04/14 10:05:04;;;;;;;9.80;5.60;;;;;;;;;;5078021;28;20573;-68
2021/04/14 10:07:32;;;;;;;8.25;5.90;;;;;;;;;;5076156;28;20247;-69
2021/04/14 10:10:05;;;;;;;6.13;5.50;;;;;;;;;;5078213;28;20185;-69
2021/04/14 10:12:31;;;;;;;6.50;5.32;;;;;;;;;;5076141;28;20697;-69
2021/04/14 10:14:57;;;;;;;7.18;5.18;;;;;;;;;;5072901;28;20201;-68
2021/04/14 10:17:24;;;;;;;7.20;5.90;;;;;;;;;;5072254;28;20669;-68
2021/04/14 10:19:54;;;;;;;7.07;5.88;;;;;;;;;;5080305;28;20231;-68
2021/04/14 10:22:30;;;;;;;8.23;5.53;;;;;;;;;;5087773;28;20188;-68
2021/04/14 10:25:04;;;;;;;7.18;5.38;;;;;;;;;;5076489;28;20570;-68
2021/04/14 10:27:29;;;;;;;6.80;6.07;;;;;;;;;;5080052;28;20205;-67
2021/04/14 10:29:55;;;;;;;8.65;5.47;;;;;;;;;;5080886;28;20710;-69
2021/04/14 10:32:21;;;;;;;9.75;5.70;;;;;;;;;;5085914;28;20219;-68
2021/04/14 10:34:46;;;;;;;6.65;4.90;;;;;;;;;;5074842;28;20216;-68
2021/04/14 10:37:16;;;;;;;6.55;4.88;;;;;;;;;;5077662;28;20649;-69
2021/04/14 10:39:41;;;;;;;7.78;5.28;;;;;;;;;;5079534;28;20225;-68
2021/04/14 10:42:13;;;;;;;5.75;4.72;;;;;;;;;;5077026;28;20193;-69
2021/04/14 10:44:38;;;;;;;5.65;4.22;;;;;;;;;;5071983;28;20176;-68
2021/04/14 10:47:06;;;;;;;6.47;4.37;;;;;;;;;;5078594;28;20211;-68
2021/04/14 10:49:32;;;;;;;5.63;4.63;;;;;;;;;;5073086;28;20492;-68
2021/04/14 10:52:03;;;;;;;6.85;4.57;;;;;;;;;;5077955;28;20620;-66
2021/04/14 10:54:30;;;;;;;9.68;5.57;;;;;;;;;;5069487;28;20177;-68
2021/04/14 10:57:06;;;;;;;7.75;4.38;;;;;;;;;;5068323;28;20192;-67
2021/04/14 10:59:32;;;;;;;5.70;4.10;;;;;;;;;;5082295;28;20194;-68
2021/04/14 11:01:57;;;;;;;7.05;5.28;;;;;;;;;;5071552;28;20842;-69
2021/04/14 11:04:29;;;;;;;8.35;5.70;;;;;;;;;;5073304;28;20557;-68
2021/04/14 11:06:57;;;;;;;5.95;5.35;;;;;;;;;;5081788;28;20261;-68
2021/04/14 11:09:22;;;;;;;7.22;5.07;;;;;;;;;;5082128;28;20302;-67
2021/04/14 11:11:48;;;;;;;7.07;4.75;;;;;;;;;;5081476;28;20686;-68
2021/04/14 11:14:16;;;;;;;8.38;5.38;;;;;;;;;;5078042;28;20169;-68
2021/04/14 11:16:43;;;;;;;6.07;4.05;;;;;;;;;;5073371;28;20188;-69
2021/04/14 11:19:19;;;;;;;6.90;3.42;;;;;;;;;;5077604;28;20287;-69
2021/04/14 11:21:45;;;;;;;4.20;3.80;;;;;;;;;;5079640;28;20200;-69
2021/04/14 11:24:18;;;;;;;6.27;3.97;;;;;;;;;;5084483;28;20216;-69
2021/04/14 11:26:51;;;;;;;6.13;4.37;;;;;;;;;;5074959;28;20184;-68
2021/04/14 11:29:30;;;;;;;6.00;4.43;;;;;;;;;;5074765;28;20287;-69
2021/04/14 11:31:56;;;;;;;4.27;3.87;;;;;;;;;;5077411;28;20208;-67
2021/04/14 11:34:22;;;;;;;8.10;4.13;;;;;;;;;;5074182;28;20199;-68
2021/04/14 11:37:03;;;;;;;5.80;3.67;;;;;;;;;;5073322;28;20218;-68
2021/04/14 11:39:29;;;;;;;6.20;3.93;;;;;;;;;;5076556;28;20172;-68
2021/04/14 11:42:14;;;;;;;6.50;4.13;;;;;;;;;;5074238;28;20618;-67
2021/04/14 11:44:41;;;;;;;8.38;4.60;;;;;;;;;;5076682;28;20332;-68
2021/04/14 11:47:09;;;;;;;6.17;3.67;;;;;;;;;;5072943;28;20559;-66
2021/04/14 11:49:38;;;;;;;5.60;3.58;;;;;;;;;;5071040;28;20176;-67
2021/04/14 11:52:20;;;;;;;6.03;3.05;;;;;;;;;;5078790;28;20303;-68
2021/04/14 11:54:45;;;;;;;5.75;3.90;;;;;;;;;;5070135;28;20180;-68
2021/04/14 11:57:10;;;;;;;4.80;3.40;;;;;;;;;;5071870;28;20187;-69
2021/04/14 11:59:36;;;;;;;3.50;3.20;;;;;;;;;;5074983;28;20177;-67
2021/04/14 12:02:02;;;;;;;2.50;2.30;;;;;;;;;;5072804;28;20448;-68
2021/04/14 12:04:28;;;;;;;3.22;2.08;;;;;;;;;;5078486;28;20176;-68
2021/04/14 12:06:53;;;;;;;2.67;1.25;;;;;;;;;;5078839;28;20205;-69
2021/04/14 12:09:19;;;;;;;2.45;1.30;;;;;;;;;;5069982;28;20183;-67
2021/04/14 12:11:44;;;;;;;1.40;0.82;;;;;;;;;;5071823;28;21063;-68
2021/04/14 12:14:09;;;;;;;1.70;0.90;;;;;;;;;;5071513;28;20180;-68
2021/04/14 12:16:36;;;;;;;2.55;1.10;;;;;;;;;;5081771;28;20767;-69
2021/04/14 12:19:02;;;;;;;1.42;0.60;;;;;;;;;;5073710;28;20191;-68
2021/04/14 12:21:27;;;;;;;2.53;0.90;;;;;;;;;;5080052;28;20685;-69
2021/04/14 12:23:53;;;;;;;2.17;0.73;;;;;;;;;;5071173;28;20654;-68
2021/04/14 12:26:18;;;;;;;1.33;0.63;;;;;;;;;;5073883;28;20185;-69
2021/04/14 12:28:43;;;;;;;1.30;0.50;;;;;;;;;;5076059;28;20472;-69
2021/04/14 12:31:08;;;;;;;1.40;0.68;;;;;;;;;;5080118;28;20207;-68
2021/04/14 12:33:34;;;;;;;1.55;0.60;;;;;;;;;;5075734;28;20185;-69
2021/04/14 12:35:59;;;;;;;2.63;0.40;;;;;;;;;;5080048;28;20299;-69
2021/04/14 12:38:24;;;;;;;2.67;0.47;;;;;;;;;;5072452;28;20192;-68
2021/04/14 12:40:49;;;;;;;2.73;0.80;;;;;;;;;;5077945;28;20742;-69
2021/04/14 12:43:15;;;;;;;1.08;0.60;;;;;;;;;;5069760;28;20416;-68
2021/04/14 12:45:46;;;;;;;3.40;2.05;;;;;;;;;;5074106;28;20172;-69
2021/04/14 12:48:13;;;;;;;2.03;0.47;;;;;;;;;;5069636;28;20361;-69
2021/04/14 12:50:38;;;;;;;1.67;0.60;;;;;;;;;;5074378;28;20275;-69
2021/04/14 12:53:04;;;;;;;1.27;0.50;;;;;;;;;;5078122;28;20741;-68
2021/04/14 12:55:37;;;;;;;1.42;0.70;;;;;;;;;;5067931;28;20289;-68
2021/04/14 12:58:02;;;;;;;0.98;0.50;;;;;;;;;;5075710;28;20655;-69
2021/04/14 13:00:28;;;;;;;2.13;0.60;;;;;;;;;;5079273;28;20207;-69
2021/04/14 13:03:08;;;;;;;2.47;0.40;;;;;;;;;;5074339;28;20188;-68
2021/04/14 13:05:36;;;;;;;2.25;0.55;;;;;;;;;;5075573;28;20229;-69
2021/04/14 13:08:01;;;;;;;1.08;0.65;;;;;;;;;;5072939;28;20737;-69
2021/04/14 13:10:29;;;;;;;1.55;0.50;;;;;;;;;;5074827;28;20319;-69
2021/04/14 13:12:54;;;;;;;1.15;0.47;;;;;;;;;;5086016;28;20418;-68
2021/04/14 13:15:24;;;;;;;2.55;0.60;;;;;;;;;;5081109;28;20184;-69
2021/04/14 13:17:52;;;;;;;0.77;0.40;;;;;;;;;;5078357;28;20196;-68
2021/04/14 13:20:18;;;;;;;3.80;1.00;;;;;;;;;;5078193;28;20233;-69
2021/04/14 13:22:43;;;;;;;2.85;0.85;;;;;;;;;;5087088;28;20183;-67
2021/04/14 13:25:13;;;;;;;1.83;0.73;;;;;;;;;;5076458;28;20607;-68
2021/04/14 13:28:01;;;;;;;4.65;1.50;;;;;;;;;;5078984;28;20817;-68
2021/04/14 13:30:49;;;;;;;2.38;0.63;;;;;;;;;;5080204;28;20192;-68
2021/04/14 13:33:35;;;;;;;2.10;0.50;;;;;;;;;;5072737;28;20184;-69
2021/04/14 13:36:04;;;;;;;2.33;0.60;;;;;;;;;;5074225;28;20231;-69
2021/04/14 13:38:32;;;;;;;1.92;1.08;;;;;;;;;;5087392;28;20680;-69
2021/04/14 13:41:00;;;;;;;2.10;0.60;;;;;;;;;;5072984;28;21998;-68
2021/04/14 13:43:28;;;;;;;1.90;0.90;;;;;;;;;;5080214;28;20243;-68
2021/04/14 13:45:55;;;;;;;2.38;0.80;;;;;;;;;;5079171;28;20274;-69
2021/04/14 13:48:26;;;;;;;1.77;0.65;;;;;;;;;;5076764;28;20213;-68
2021/04/14 13:50:59;;;;;;;3.25;0.80;;;;;;;;;;5073160;28;20193;-68
2021/04/14 13:53:28;;;;;;;2.05;0.93;;;;;;;;;;5088480;28;20176;-69
2021/04/14 13:56:00;;;;;;;2.40;1.10;;;;;;;;;;5078095;28;20184;-69
2021/04/14 13:58:46;;;;;;;3.47;1.00;;;;;;;;;;5079890;28;20173;-66
2021/04/14 14:01:14;;;;;;;2.70;0.80;;;;;;;;;;5076668;28;20209;-68
2021/04/14 14:03:40;;;;;;;1.48;0.80;;;;;;;;;;5084630;28;20229;-69
2021/04/14 14:06:08;;;;;;;2.45;0.85;;;;;;;;;;5076577;28;20256;-68
2021/04/14 14:08:35;;;;;;;1.20;0.70;;;;;;;;;;5080065;28;20670;-68
2021/04/14 14:11:17;;;;;;;2.72;0.65;;;;;;;;;;5080667;28;20279;-69
2021/04/14 14:13:44;;;;;;;3.05;0.70;;;;;;;;;;5071822;28;20200;-68
2021/04/14 14:16:09;;;;;;;3.67;1.42;;;;;;;;;;5083045;28;20555;-67
2021/04/14 14:18:35;;;;;;;2.25;0.55;;;;;;;;;;5082081;28;20190;-68
2021/04/14 14:21:01;;;;;;;1.10;0.70;;;;;;;;;;5080542;28;20650;-70
2021/04/14 14:23:26;;;;;;;0.98;0.57;;;;;;;;;;5073754;28;20271;-67
2021/04/14 14:25:54;;;;;;;1.40;0.60;;;;;;;;;;5076545;28;20556;-67
2021/04/14 14:28:21;;;;;;;3.58;0.80;;;;;;;;;;5080489;28;20664;-68
2021/04/14 14:30:49;;;;;;;2.85;0.68;;;;;;;;;;5074724;28;20197;-67
2021/04/14 14:33:14;;;;;;;3.70;0.98;;;;;;;;;;5082432;28;20208;-68
2021/04/14 14:35:39;;;;;;;2.25;1.10;;;;;;;;;;5078447;28;20242;-69
2021/04/14 14:38:11;;;;;;;2.20;0.52;;;;;;;;;;5081512;28;20668;-67
2021/04/14 14:40:39;;;;;;;2.00;0.43;;;;;;;;;;5074966;28;20309;-68
2021/04/14 14:43:08;;;;;;;1.55;0.60;;;;;;;;;;5079684;28;20235;-68
2021/04/14 14:45:37;;;;;;;2.80;1.23;;;;;;;;;;5075692;28;20177;-68
2021/04/14 14:48:12;;;;;;;1.25;0.55;;;;;;;;;;5078053;28;20200;-68
2021/04/14 14:50:38;;;;;;;4.05;0.52;;;;;;;;;;5080717;28;20198;-69